Time;durP1;ratioP1;P1;durP2;ratioP2;P2;SDS_P1;SDS_P2;PMS_P1;PMS_P2;Temp;Humidity;BMP_temperature;BMP_pressure;BME280_temperature;BME280_humidity;BME280_pressure;Samples;Min_cycle;Max_cycle;Signal;HPM_P1;HPM_P2
2021/01/15 00:02:19;;;;;;;44.40;20.88;;;-1.70;75.40;;;;;;5097850;28;20028;-54
2021/01/15 00:04:44;;;;;;;39.15;20.60;;;-1.70;75.30;;;;;;5097516;28;20114;-56
2021/01/15 00:07:10;;;;;;;46.88;21.40;;;-1.80;75.10;;;;;;5097836;28;20031;-56
2021/01/15 00:09:36;;;;;;;39.53;20.17;;;-1.80;74.90;;;;;;5097179;28;20042;-55
2021/01/15 00:12:01;;;;;;;37.90;20.35;;;-1.80;74.90;;;;;;5097180;28;20024;-54
2021/01/15 00:14:27;;;;;;;42.65;20.42;;;-1.90;74.90;;;;;;5096820;28;20335;-57
2021/01/15 00:16:56;;;;;;;35.88;18.92;;;-1.90;74.80;;;;;;5096991;28;20042;-54
2021/01/15 00:19:22;;;;;;;40.42;21.02;;;-2.00;74.90;;;;;;5093854;28;20345;-54
2021/01/15 00:21:48;;;;;;;37.97;20.08;;;-2.00;75.10;;;;;;5096483;28;20056;-55
2021/01/15 00:24:16;;;;;;;40.58;20.85;;;-2.00;75.10;;;;;;5095973;28;20020;-56
2021/01/15 00:26:43;;;;;;;44.08;22.35;;;-2.10;75.00;;;;;;5094874;28;20070;-54
2021/01/15 00:29:13;;;;;;;40.00;22.40;;;-2.10;75.00;;;;;;5096486;28;20027;-53
2021/01/15 00:31:41;;;;;;;39.30;21.55;;;-2.10;75.00;;;;;;5096503;28;20031;-55
2021/01/15 00:34:09;;;;;;;40.40;20.20;;;-2.10;75.00;;;;;;5096063;28;20028;-54
2021/01/15 00:36:36;;;;;;;39.13;21.10;;;-2.10;75.10;;;;;;5094761;28;20039;-55
2021/01/15 00:39:04;;;;;;;41.83;21.90;;;-2.10;75.00;;;;;;5096724;28;20027;-55
2021/01/15 00:41:34;;;;;;;40.90;20.98;;;-2.20;74.90;;;;;;5096370;28;20035;-54
2021/01/15 00:43:59;;;;;;;45.10;22.55;;;-2.20;74.90;;;;;;5096097;28;20027;-54
2021/01/15 00:46:31;;;;;;;41.97;21.60;;;-2.20;74.80;;;;;;5095739;28;20020;-54
2021/01/15 00:49:08;;;;;;;42.75;21.63;;;-2.30;74.80;;;;;;5094802;28;20020;-55
2021/01/15 00:51:34;;;;;;;39.28;20.50;;;-2.30;74.90;;;;;;5096118;28;20032;-55
2021/01/15 00:54:01;;;;;;;45.05;22.73;;;-2.30;74.90;;;;;;5095622;28;20166;-56
2021/01/15 00:56:27;;;;;;;41.55;21.45;;;-2.30;74.90;;;;;;5095806;28;20369;-54
2021/01/15 00:58:53;;;;;;;40.13;22.05;;;-2.30;74.90;;;;;;5096532;28;20353;-56
2021/01/15 01:01:21;;;;;;;39.60;20.42;;;-2.30;74.90;;;;;;5095674;28;20035;-55
2021/01/15 01:03:48;;;;;;;43.03;21.15;;;-2.40;74.90;;;;;;5096876;28;20051;-56
2021/01/15 01:06:16;;;;;;;42.33;22.60;;;-2.40;75.10;;;;;;5096185;28;20027;-54
2021/01/15 01:08:42;;;;;;;38.88;20.75;;;-2.40;75.20;;;;;;5093127;28;20061;-55
2021/01/15 01:11:34;;;;;;;39.58;20.17;;;-2.40;75.80;;;;;;5095811;28;20402;-56
2021/01/15 01:14:01;;;;;;;39.42;21.77;;;-2.40;75.30;;;;;;5094012;28;20130;-53
2021/01/15 01:16:27;;;;;;;43.83;21.40;;;-2.40;75.20;;;;;;5095129;28;20024;-55
2021/01/15 01:18:54;;;;;;;40.15;21.90;;;-2.40;75.20;;;;;;5095797;28;20016;-57
2021/01/15 01:21:20;;;;;;;41.53;20.73;;;-2.40;75.20;;;;;;5094630;28;20115;-54
2021/01/15 01:23:46;;;;;;;47.58;22.98;;;-2.40;75.20;;;;;;5095175;28;20028;-55
2021/01/15 01:26:12;;;;;;;53.50;26.17;;;-2.50;75.20;;;;;;5095118;28;20323;-53
2021/01/15 01:28:42;;;;;;;71.10;29.63;;;-2.50;75.20;;;;;;5095279;28;20052;-55
2021/01/15 01:31:17;;;;;;;63.70;28.98;;;-2.50;75.10;;;;;;5095886;28;20024;-54
2021/01/15 01:33:43;;;;;;;59.90;26.65;;;-2.60;75.20;;;;;;5095045;28;20042;-54
2021/01/15 01:36:10;;;;;;;63.97;28.48;;;-2.60;75.20;;;;;;5095336;28;20036;-57
2021/01/15 01:38:38;;;;;;;66.10;29.83;;;-2.60;75.30;;;;;;5094956;28;20032;-55
2021/01/15 01:41:03;;;;;;;64.70;27.52;;;-2.60;75.60;;;;;;5095056;28;20036;-54
2021/01/15 01:43:29;;;;;;;61.15;27.17;;;-2.60;75.70;;;;;;5095603;28;20078;-55
2021/01/15 01:46:00;;;;;;;56.72;27.67;;;-2.60;75.90;;;;;;5095918;28;20028;-56
2021/01/15 01:48:27;;;;;;;57.83;26.17;;;-2.60;75.90;;;;;;5096974;28;20102;-55
2021/01/15 01:50:53;;;;;;;56.13;25.80;;;-2.60;76.00;;;;;;5095571;28;20114;-54
2021/01/15 01:53:24;;;;;;;54.17;24.25;;;-2.60;76.10;;;;;;5095161;28;20122;-53
2021/01/15 01:55:50;;;;;;;50.70;24.55;;;-2.60;76.10;;;;;;5094339;28;20028;-54
2021/01/15 01:58:17;;;;;;;47.30;23.13;;;-2.60;76.20;;;;;;5097683;28;20058;-54
2021/01/15 02:00:44;;;;;;;45.47;22.83;;;-2.50;76.30;;;;;;5094898;28;20074;-54
2021/01/15 02:03:16;;;;;;;51.97;24.00;;;-2.50;76.40;;;;;;5095278;28;20115;-54
2021/01/15 02:05:41;;;;;;;39.17;21.40;;;-2.40;76.50;;;;;;5094294;28;20500;-54
2021/01/15 02:08:09;;;;;;;38.58;20.42;;;-2.40;76.50;;;;;;5102519;28;20051;-54
2021/01/15 02:10:54;;;;;;;46.03;23.75;;;-2.30;76.60;;;;;;5110481;28;20456;-54
2021/01/15 02:13:48;;;;;;;42.78;22.20;;;-2.30;76.50;;;;;;5103841;28;20442;-55
2021/01/15 02:16:24;;;;;;;42.00;22.25;;;-2.20;76.50;;;;;;5106691;28;20032;-55
2021/01/15 02:18:54;;;;;;;47.35;21.77;;;-2.20;76.20;;;;;;5102554;28;19996;-54
2021/01/15 02:21:53;;;;;;;41.28;21.33;;;-2.20;76.20;;;;;;5098445;28;20058;-58
2021/01/15 02:24:54;;;;;;;45.05;21.55;;;-2.20;76.40;;;;;;5092408;28;20028;-54
2021/01/15 02:27:40;;;;;;;41.67;21.30;;;-2.10;76.40;;;;;;5096055;28;20317;-54
2021/01/15 02:30:05;;;;;;;49.13;23.52;;;-2.10;76.40;;;;;;5094208;28;20107;-53
2021/01/15 02:33:00;;;;;;;43.13;22.48;;;-2.10;76.20;;;;;;5095311;28;20111;-53
2021/01/15 02:35:39;;;;;;;47.15;21.70;;;-2.10;76.30;;;;;;5094871;28;20032;-53
2021/01/15 02:38:14;;;;;;;42.47;21.45;;;-2.10;76.20;;;;;;5106152;28;20073;-55
2021/01/15 02:41:18;;;;;;;43.08;22.00;;;-2.10;76.30;;;;;;5094297;28;20031;-54
2021/01/15 02:44:05;;;;;;;45.10;23.30;;;-2.10;76.40;;;;;;5100708;28;20028;-54
2021/01/15 02:47:00;;;;;;;50.58;24.63;;;-2.00;76.50;;;;;;5102972;28;20054;-54
2021/01/15 02:49:31;;;;;;;47.25;23.45;;;-2.00;76.50;;;;;;5103520;28;20321;-56
2021/01/15 02:52:00;;;;;;;51.22;23.67;;;-2.00;76.50;;;;;;5104335;28;20028;-55
2021/01/15 02:54:30;;;;;;;44.88;22.27;;;-2.00;76.50;;;;;;5106574;28;20122;-55
2021/01/15 02:56:55;;;;;;;50.17;22.70;;;-2.00;76.60;;;;;;5108190;28;20266;-54
2021/01/15 02:59:24;;;;;;;45.47;22.50;;;-1.90;76.50;;;;;;5109293;28;20094;-54
2021/01/15 03:02:20;;;;;;;45.15;21.48;;;-1.90;76.40;;;;;;5106802;28;20035;-54
2021/01/15 03:05:20;;;;;;;43.58;21.70;;;-1.90;76.30;;;;;;5108448;28;20031;-57
2021/01/15 03:07:50;;;;;;;46.70;22.70;;;-1.90;76.20;;;;;;5107047;28;20016;-55
2021/01/15 03:10:26;;;;;;;44.15;21.45;;;-2.00;76.00;;;;;;5100168;28;20119;-53
2021/01/15 03:12:56;;;;;;;36.50;20.10;;;-2.00;76.10;;;;;;5103148;28;20035;-54
2021/01/15 03:15:40;;;;;;;36.63;20.08;;;-2.00;76.20;;;;;;5110174;28;20453;-54
2021/01/15 03:18:13;;;;;;;41.05;21.60;;;-2.00;76.20;;;;;;5106722;28;20028;-55
2021/01/15 03:20:48;;;;;;;41.10;21.13;;;-2.00;76.00;;;;;;5103940;28;20056;-55
2021/01/15 03:23:20;;;;;;;36.70;20.70;;;-2.00;76.10;;;;;;5113807;28;20516;-55
2021/01/15 03:25:49;;;;;;;44.72;21.05;;;-2.10;76.10;;;;;;5111811;28;20031;-54
2021/01/15 03:28:34;;;;;;;42.55;20.73;;;-2.10;76.20;;;;;;5108531;28;20012;-56
2021/01/15 03:31:04;;;;;;;39.08;21.15;;;-2.00;76.30;;;;;;5114617;28;20019;-54
2021/01/15 03:33:34;;;;;;;35.50;19.73;;;-2.10;76.20;;;;;;5092362;28;20066;-55
2021/01/15 03:36:00;;;;;;;37.95;19.73;;;-2.10;76.20;;;;;;5105794;28;20128;-55
2021/01/15 03:38:31;;;;;;;36.97;20.55;;;-2.10;76.30;;;;;;5106520;28;20004;-53
2021/01/15 03:41:00;;;;;;;40.78;20.52;;;-2.10;76.20;;;;;;5113571;28;20027;-54
2021/01/15 03:43:27;;;;;;;39.88;21.17;;;-2.10;76.20;;;;;;5114472;28;20024;-53
2021/01/15 03:45:59;;;;;;;37.20;19.65;;;-2.10;76.30;;;;;;5112473;28;20036;-58
2021/01/15 03:48:29;;;;;;;41.72;21.15;;;-2.00;76.40;;;;;;5112133;28;20431;-54
2021/01/15 03:50:57;;;;;;;41.45;21.05;;;-2.00;76.50;;;;;;5105504;28;20124;-54
2021/01/15 03:53:52;;;;;;;44.67;22.92;;;-2.00;76.50;;;;;;5113359;28;20217;-53
2021/01/15 03:56:20;;;;;;;41.90;22.05;;;-2.00;76.40;;;;;;5107391;28;20065;-55
2021/01/15 03:58:54;;;;;;;47.38;22.35;;;-2.00;76.30;;;;;;5111056;28;20031;-54
2021/01/15 04:01:22;;;;;;;38.88;19.83;;;-2.00;76.30;;;;;;5107698;28;20024;-56
2021/01/15 04:03:48;;;;;;;44.30;20.83;;;-2.00;76.30;;;;;;5099013;28;20430;-53
2021/01/15 04:06:13;;;;;;;40.95;20.75;;;-2.00;76.40;;;;;;5096811;28;20034;-55
2021/01/15 04:08:40;;;;;;;41.10;22.08;;;-1.90;76.50;;;;;;5096683;28;20036;-52
2021/01/15 04:11:06;;;;;;;43.13;22.60;;;-1.90;76.50;;;;;;5097648;28;20028;-54
2021/01/15 04:13:31;;;;;;;41.53;21.85;;;-1.80;76.50;;;;;;5098008;28;20411;-53
2021/01/15 04:15:57;;;;;;;45.97;22.05;;;-1.80;76.40;;;;;;5097892;28;20043;-55
2021/01/15 04:18:23;;;;;;;43.15;21.98;;;-1.90;76.20;;;;;;5097945;28;20042;-52
2021/01/15 04:20:48;;;;;;;42.50;22.70;;;-1.80;76.30;;;;;;5096972;28;20048;-54
2021/01/15 04:23:14;;;;;;;44.63;22.95;;;-1.80;76.20;;;;;;5096619;28;20020;-54
2021/01/15 04:25:40;;;;;;;42.67;23.23;;;-1.80;76.10;;;;;;5095989;28;20027;-57
2021/01/15 04:28:05;;;;;;;46.28;23.60;;;-1.90;76.10;;;;;;5097114;28;20321;-56
2021/01/15 04:30:31;;;;;;;51.47;23.88;;;-1.90;76.30;;;;;;5096563;28;20325;-56
2021/01/15 04:32:57;;;;;;;44.40;23.52;;;-1.80;76.30;;;;;;5097189;28;20030;-57
2021/01/15 04:35:22;;;;;;;51.17;24.73;;;-1.80;76.40;;;;;;5097320;28;20048;-55
2021/01/15 04:37:48;;;;;;;52.20;24.98;;;-1.80;76.30;;;;;;5098046;28;20107;-56
2021/01/15 04:40:15;;;;;;;47.15;24.63;;;-1.80;76.20;;;;;;5097743;28;20032;-55
2021/01/15 04:42:42;;;;;;;51.65;25.33;;;-1.90;76.20;;;;;;5096576;28;20081;-55
2021/01/15 04:45:13;;;;;;;59.78;25.77;;;-1.80;76.30;;;;;;5095410;28;20027;-54
2021/01/15 04:47:46;;;;;;;49.70;26.33;;;-1.80;76.40;;;;;;5096501;28;20357;-54
2021/01/15 04:50:14;;;;;;;44.85;23.52;;;-1.80;76.50;;;;;;5096192;28;20036;-54
2021/01/15 04:52:51;;;;;;;48.20;23.80;;;-1.80;76.60;;;;;;5096794;28;20069;-55
2021/01/15 04:55:19;;;;;;;50.17;25.38;;;-1.80;76.70;;;;;;5093233;28;20591;-56
2021/01/15 04:57:49;;;;;;;46.33;24.88;;;-1.70;76.60;;;;;;5095999;28;20085;-55
2021/01/15 05:00:26;;;;;;;46.97;24.88;;;-1.70;76.60;;;;;;5095789;28;20039;-55
2021/01/15 05:02:53;;;;;;;48.10;23.88;;;-1.70;76.60;;;;;;5094951;28;20012;-55
2021/01/15 05:05:26;;;;;;;50.05;25.50;;;-1.60;76.70;;;;;;5096893;28;20059;-53
2021/01/15 05:08:06;;;;;;;51.45;25.45;;;-1.60;76.60;;;;;;5096572;28;20109;-52
2021/01/15 05:10:45;;;;;;;50.17;24.25;;;-1.60;76.50;;;;;;5096101;28;20035;-53
2021/01/15 05:13:13;;;;;;;46.17;23.98;;;-1.60;76.40;;;;;;5095313;28;20074;-53
2021/01/15 05:15:43;;;;;;;46.08;24.00;;;-1.60;76.50;;;;;;5095074;28;20335;-54
2021/01/15 05:18:10;;;;;;;42.05;23.23;;;-1.60;76.50;;;;;;5095298;28;20023;-54
2021/01/15 05:20:36;;;;;;;50.05;24.15;;;-1.50;76.50;;;;;;5095262;28;20090;-54
2021/01/15 05:23:04;;;;;;;45.95;24.55;;;-1.50;76.50;;;;;;5095354;28;20020;-54
2021/01/15 05:25:31;;;;;;;45.10;23.17;;;-1.50;76.30;;;;;;5095295;28;20056;-54
2021/01/15 05:27:56;;;;;;;44.20;23.90;;;-1.40;76.30;;;;;;5095600;28;20437;-56
2021/01/15 05:30:27;;;;;;;44.85;23.98;;;-1.40;76.20;;;;;;5094930;28;20111;-53
2021/01/15 05:32:54;;;;;;;47.35;23.83;;;-1.40;76.40;;;;;;5092743;28;20272;-55
2021/01/15 05:35:39;;;;;;;50.85;26.52;;;-1.40;76.50;;;;;;5095232;28;20051;-55
2021/01/15 05:38:04;;;;;;;47.00;24.73;;;-1.30;76.50;;;;;;5094500;28;20921;-54
2021/01/15 05:40:40;;;;;;;48.80;25.92;;;-1.30;76.30;;;;;;5092582;28;20036;-57
2021/01/15 05:43:07;;;;;;;51.33;26.00;;;-1.30;76.40;;;;;;5095990;28;20024;-56
2021/01/15 05:45:33;;;;;;;54.30;27.70;;;-1.30;76.40;;;;;;5095275;28;20354;-56
2021/01/15 05:47:59;;;;;;;49.03;23.55;;;-1.30;76.30;;;;;;5094977;28;20032;-55
2021/01/15 05:50:39;;;;;;;48.80;23.15;;;-1.30;76.20;;;;;;5095431;28;20418;-55
2021/01/15 05:53:05;;;;;;;51.05;23.27;;;-1.30;76.10;;;;;;5096128;28;20326;-56
2021/01/15 05:55:30;;;;;;;45.20;20.95;;;-1.30;76.20;;;;;;5094326;28;20046;-56
2021/01/15 05:58:07;;;;;;;42.17;19.02;;;-1.30;75.60;;;;;;5095020;28;20026;-57
2021/01/15 06:00:34;;;;;;;35.30;17.20;;;-1.40;75.00;;;;;;5095510;28;20035;-55
2021/01/15 06:03:04;;;;;;;39.78;19.35;;;-1.50;74.60;;;;;;5095905;28;20123;-56
2021/01/15 06:05:32;;;;;;;;;;;-1.50;74.60;;;;;;5095820;28;20050;-56
2021/01/15 06:07:58;;;;;;;41.75;19.80;;;-1.60;74.60;;;;;;5095957;28;19908;-56
2021/01/15 06:10:28;;;;;;;40.10;19.35;;;-1.60;74.90;;;;;;5093009;28;20465;-56
2021/01/15 06:12:54;;;;;;;36.17;17.85;;;-1.70;75.20;;;;;;5095944;28;20113;-56
2021/01/15 06:15:20;;;;;;;41.72;18.73;;;-1.70;75.30;;;;;;5095829;28;20067;-55
2021/01/15 06:17:50;;;;;;;42.40;18.77;;;-1.70;75.10;;;;;;5095622;28;20058;-56
2021/01/15 06:20:22;;;;;;;39.33;17.88;;;-1.70;75.10;;;;;;5095344;28;20056;-57
2021/01/15 06:22:51;;;;;;;36.22;18.10;;;-1.80;75.10;;;;;;5095485;28;20119;-56
2021/01/15 06:25:30;;;;;;;41.70;18.20;;;-1.80;75.10;;;;;;5095563;28;20036;-55
2021/01/15 06:27:57;;;;;;;35.53;17.30;;;-1.80;75.00;;;;;;5095458;28;20039;-55
2021/01/15 06:30:25;;;;;;;38.13;16.92;;;-1.80;74.90;;;;;;5095657;28;20063;-55
2021/01/15 06:32:53;;;;;;;36.42;17.48;;;-1.80;75.00;;;;;;5092634;28;20493;-56
2021/01/15 06:35:43;;;;;;;36.63;17.27;;;-1.80;74.90;;;;;;5076334;28;20040;-56
2021/01/15 06:38:10;;;;;;;37.72;16.85;;;-1.90;74.50;;;;;;5093712;28;20313;-56
2021/01/15 06:40:37;;;;;;;35.40;17.17;;;-1.90;74.30;;;;;;5094097;28;20020;-56
2021/01/15 06:43:07;;;;;;;35.30;17.45;;;-2.00;74.30;;;;;;5095135;28;20123;-56
2021/01/15 06:45:54;;;;;;;37.65;16.92;;;-2.00;74.30;;;;;;5096000;28;20237;-55
2021/01/15 06:48:23;;;;;;;34.58;16.52;;;-2.00;74.30;;;;;;5088164;28;20024;-55
2021/01/15 06:50:51;;;;;;;39.80;18.55;;;-2.10;74.50;;;;;;5078877;28;20024;-56
2021/01/15 06:53:24;;;;;;;35.78;16.95;;;-2.10;74.90;;;;;;5094758;28;20063;-55
2021/01/15 06:55:55;;;;;;;34.28;17.42;;;-2.10;75.20;;;;;;5093372;28;20071;-57
2021/01/15 06:58:29;;;;;;;31.80;15.43;;;-2.00;75.30;;;;;;5093962;28;20311;-57
2021/01/15 07:01:16;;;;;;;30.95;16.17;;;-2.00;75.00;;;;;;5094688;28;20038;-57
2021/01/15 07:03:51;;;;;;;31.42;15.90;;;-2.00;74.60;;;;;;5094784;28;20066;-57
2021/01/15 07:06:35;;;;;;;38.47;19.73;;;-2.10;74.40;;;;;;5097147;28;20023;-58
2021/01/15 07:09:06;;;;;;;39.72;19.50;;;-2.10;74.00;;;;;;5088212;28;20024;-57
2021/01/15 07:11:33;;;;;;;43.72;20.95;;;-2.20;74.10;;;;;;5092783;28;20051;-57
2021/01/15 07:14:01;;;;;;;33.03;16.38;;;-2.20;74.30;;;;;;5093654;28;20376;-57
2021/01/15 07:16:37;;;;;;;36.78;17.77;;;-2.20;74.20;;;;;;5093275;28;20574;-57
2021/01/15 07:19:07;;;;;;;34.15;17.60;;;-2.20;74.00;;;;;;5092139;28;20024;-57
2021/01/15 07:21:37;;;;;;;33.85;17.42;;;-2.20;74.00;;;;;;5093869;28;20415;-58
2021/01/15 07:24:05;;;;;;;37.47;16.63;;;-2.20;73.70;;;;;;5094350;28;20066;-57
2021/01/15 07:26:39;;;;;;;33.50;15.98;;;-2.20;73.50;;;;;;5094440;28;20063;-57
2021/01/15 07:29:09;;;;;;;39.63;17.73;;;-2.20;73.40;;;;;;5094755;28;20032;-57
2021/01/15 07:31:39;;;;;;;42.75;21.58;;;-2.30;73.20;;;;;;5094287;28;20077;-57
2021/01/15 07:34:12;;;;;;;36.60;18.02;;;-2.30;73.40;;;;;;5094832;28;20418;-57
2021/01/15 07:36:39;;;;;;;36.88;17.85;;;-2.30;73.50;;;;;;5093978;28;20036;-57
2021/01/15 07:39:17;;;;;;;38.03;18.75;;;-2.30;73.40;;;;;;5097520;28;20031;-57
2021/01/15 07:41:53;;;;;;;36.03;17.20;;;-2.20;73.70;;;;;;5098434;28;20345;-57
2021/01/15 07:44:22;;;;;;;37.63;18.60;;;-2.20;73.60;;;;;;5098062;28;20028;-57
2021/01/15 07:46:55;;;;;;;42.10;19.15;;;-2.20;73.90;;;;;;5097404;28;20430;-57
2021/01/15 07:49:23;;;;;;;33.38;17.83;;;-2.10;74.10;;;;;;5094877;28;20405;-57
2021/01/15 07:52:05;;;;;;;35.28;17.92;;;-2.00;73.90;;;;;;5096811;28;20020;-58
2021/01/15 07:55:03;;;;;;;37.22;18.75;;;-2.00;73.70;;;;;;5086305;28;20308;-56
2021/01/15 07:57:33;;;;;;;40.92;18.65;;;-2.00;73.20;;;;;;5070577;28;20037;-52
2021/01/15 08:00:23;;;;;;;44.50;19.43;;;-2.00;73.00;;;;;;5095582;28;20130;-52
2021/01/15 08:02:49;;;;;;;38.67;19.00;;;-2.10;72.90;;;;;;5097700;28;20024;-50
2021/01/15 08:05:15;;;;;;;35.55;18.95;;;-2.10;73.00;;;;;;5096997;28;20035;-57
2021/01/15 08:07:40;;;;;;;41.20;21.20;;;-2.10;72.80;;;;;;5096512;28;20455;-56
2021/01/15 08:10:09;;;;;;;42.95;20.65;;;-2.10;72.60;;;;;;5096132;28;20031;-57
2021/01/15 08:12:41;;;;;;;35.92;18.20;;;-2.10;72.70;;;;;;5097680;28;20020;-57
2021/01/15 08:15:28;;;;;;;37.22;16.80;;;-2.10;72.70;;;;;;5097488;28;20051;-56
2021/01/15 08:17:57;;;;;;;33.85;17.10;;;-2.10;72.60;;;;;;5096313;28;20382;-56
2021/01/15 08:20:26;;;;;;;29.75;18.15;;;-2.10;72.50;;;;;;5096797;28;20067;-56
2021/01/15 08:22:53;;;;;;;35.45;17.92;;;-2.10;72.90;;;;;;5096358;28;20026;-57
2021/01/15 08:25:25;;;;;;;35.20;17.83;;;-2.10;72.80;;;;;;5095862;28;20032;-56
2021/01/15 08:27:52;;;;;;;32.75;17.30;;;-2.10;72.60;;;;;;5096135;28;20020;-56
2021/01/15 08:30:23;;;;;;;34.17;17.83;;;-2.10;72.80;;;;;;5096239;28;20024;-56
2021/01/15 08:32:49;;;;;;;33.20;17.33;;;-2.00;72.80;;;;;;5078708;28;20031;-57
2021/01/15 08:35:25;;;;;;;33.63;16.80;;;-2.00;72.60;;;;;;5095198;28;20052;-56
2021/01/15 08:37:57;;;;;;;56.78;28.63;;;-2.10;72.30;;;;;;5096045;28;20028;-57
2021/01/15 08:40:29;;;;;;;76.53;38.10;;;-2.10;72.40;;;;;;5094843;28;20059;-56
2021/01/15 08:42:58;;;;;;;41.58;22.40;;;-2.10;72.60;;;;;;5096312;28;20028;-57
2021/01/15 08:45:28;;;;;;;57.92;29.05;;;-2.10;72.40;;;;;;5095583;28;20032;-57
2021/01/15 08:47:56;;;;;;;37.05;18.20;;;-2.10;72.40;;;;;;5096780;28;20036;-57
2021/01/15 08:50:23;;;;;;;35.33;18.63;;;-2.00;72.00;;;;;;5094183;28;20479;-57
2021/01/15 08:52:50;;;;;;;37.15;19.17;;;-2.10;71.70;;;;;;5095998;28;20024;-57
2021/01/15 08:55:17;;;;;;;31.30;16.33;;;-2.10;71.80;;;;;;5095519;28;20093;-57
2021/01/15 08:57:44;;;;;;;24.63;13.98;;;-2.10;71.90;;;;;;5095097;28;20126;-57
2021/01/15 09:00:12;;;;;;;43.20;21.77;;;-2.10;72.00;;;;;;5095652;28;20028;-57
2021/01/15 09:02:40;;;;;;;43.58;22.95;;;-2.10;71.60;;;;;;5096333;28;20031;-57
2021/01/15 09:05:13;;;;;;;33.63;18.08;;;-2.10;71.70;;;;;;5095323;28;20109;-57
2021/01/15 09:07:44;;;;;;;33.25;16.33;;;-2.00;71.70;;;;;;5096477;28;20047;-57
2021/01/15 09:10:13;;;;;;;37.42;19.10;;;-2.00;71.30;;;;;;5101691;28;20032;-57
2021/01/15 09:12:43;;;;;;;35.90;18.15;;;-2.10;70.80;;;;;;5096287;28;20509;-56
2021/01/15 09:15:22;;;;;;;28.75;14.88;;;-2.10;70.40;;;;;;5095851;28;20067;-57
2021/01/15 09:17:48;;;;;;;33.75;16.60;;;-2.20;70.50;;;;;;5095773;28;20110;-57
2021/01/15 09:20:16;;;;;;;34.20;18.05;;;-2.20;70.80;;;;;;5099003;28;20475;-57
2021/01/15 09:22:43;;;;;;;34.38;16.63;;;-2.20;70.70;;;;;;5094515;28;20123;-57
2021/01/15 09:25:10;;;;;;;39.13;19.02;;;-2.20;70.90;;;;;;5096695;28;20053;-56
2021/01/15 09:27:36;;;;;;;36.47;16.15;;;-2.20;71.10;;;;;;5094719;28;20028;-55
2021/01/15 09:30:03;;;;;;;32.97;15.40;;;-2.20;71.20;;;;;;5082848;28;20039;-55
2021/01/15 09:32:29;;;;;;;26.85;15.38;;;-2.20;71.20;;;;;;5107450;28;20441;-54
2021/01/15 09:34:54;;;;;;;46.28;21.40;;;-2.20;71.30;;;;;;5096169;28;20043;-56
2021/01/15 09:37:20;;;;;;;40.83;19.63;;;-2.20;71.30;;;;;;5108401;28;20048;-57
2021/01/15 09:39:46;;;;;;;32.35;15.52;;;-2.20;71.30;;;;;;5110188;28;20114;-56
2021/01/15 09:42:14;;;;;;;32.33;17.48;;;-2.20;71.50;;;;;;5106947;28;20078;-56
2021/01/15 09:44:40;;;;;;;33.15;17.27;;;-2.10;71.60;;;;;;5081674;28;20029;-56
2021/01/15 09:47:06;;;;;;;28.60;13.95;;;-2.10;71.10;;;;;;5087624;28;20027;-57
2021/01/15 09:49:33;;;;;;;37.40;16.05;;;-2.10;70.90;;;;;;5094220;28;20027;-56
2021/01/15 09:52:02;;;;;;;46.15;19.80;;;-2.00;70.60;;;;;;5095084;28;20028;-56
2021/01/15 09:54:30;;;;;;;26.23;13.38;;;-2.00;70.40;;;;;;5096435;28;20063;-56
2021/01/15 09:56:56;;;;;;;28.67;15.63;;;-2.00;69.80;;;;;;5109691;28;20111;-55
2021/01/15 09:59:22;;;;;;;24.23;11.88;;;-2.00;69.70;;;;;;5107327;28;20107;-58
2021/01/15 10:01:48;;;;;;;22.10;11.75;;;-2.00;69.90;;;;;;5095695;28;20420;-57
2021/01/15 10:04:15;;;;;;;26.63;13.57;;;-2.00;69.70;;;;;;5097604;28;20585;-56
2021/01/15 10:06:42;;;;;;;22.67;11.18;;;-1.90;69.20;;;;;;5106291;28;20085;-53
2021/01/15 10:09:09;;;;;;;18.63;9.63;;;-1.90;68.70;;;;;;5094098;28;20467;-57
2021/01/15 10:11:38;;;;;;;26.30;13.25;;;-2.00;68.50;;;;;;5095121;28;20107;-57
2021/01/15 10:14:06;;;;;;;21.17;12.38;;;-2.00;68.50;;;;;;5095588;28;20328;-57
2021/01/15 10:16:35;;;;;;;20.63;10.75;;;-2.00;68.10;;;;;;5093315;28;20032;-57
2021/01/15 10:19:01;;;;;;;21.65;11.35;;;-2.00;67.80;;;;;;5099231;28;20032;-56
2021/01/15 10:21:28;;;;;;;19.42;9.93;;;-2.00;67.80;;;;;;5114651;28;20055;-56
2021/01/15 10:23:56;;;;;;;17.73;9.75;;;-2.00;67.50;;;;;;5100100;28;20024;-57
2021/01/15 10:26:32;;;;;;;33.67;16.58;;;-1.90;68.10;;;;;;5106665;28;20032;-57
2021/01/15 10:28:59;;;;;;;19.08;9.65;;;-1.90;68.40;;;;;;5085946;28;20024;-55
2021/01/15 10:31:26;;;;;;;23.05;12.15;;;-1.90;68.20;;;;;;5113663;28;20333;-57
2021/01/15 10:33:54;;;;;;;29.80;12.70;;;-1.90;68.20;;;;;;5115378;28;20036;-57
2021/01/15 10:36:21;;;;;;;25.90;11.43;;;-1.90;68.40;;;;;;5097778;28;20127;-55
2021/01/15 10:38:47;;;;;;;18.83;10.90;;;-1.80;68.70;;;;;;5095260;28;20036;-55
2021/01/15 10:41:13;;;;;;;19.75;10.50;;;-1.80;68.40;;;;;;5094830;28;20049;-57
2021/01/15 10:43:39;;;;;;;21.48;11.50;;;-1.70;69.10;;;;;;5094674;28;20110;-56
2021/01/15 10:46:05;;;;;;;21.95;11.85;;;-1.70;68.80;;;;;;5094853;28;20123;-57
2021/01/15 10:48:31;;;;;;;20.08;11.18;;;-1.60;68.70;;;;;;5095111;28;20374;-54
2021/01/15 10:50:57;;;;;;;27.67;12.48;;;-1.60;68.40;;;;;;5094742;28;20074;-57
2021/01/15 10:53:24;;;;;;;23.23;13.07;;;-1.60;68.10;;;;;;5095236;28;20067;-55
2021/01/15 10:55:50;;;;;;;25.40;14.32;;;-1.60;67.60;;;;;;5094609;28;20466;-55
2021/01/15 10:58:16;;;;;;;26.52;14.93;;;-1.70;67.30;;;;;;5095307;28;20047;-55
2021/01/15 11:00:42;;;;;;;24.30;12.82;;;-1.70;67.20;;;;;;5101272;28;20028;-57
2021/01/15 11:03:08;;;;;;;25.90;12.50;;;-1.70;67.30;;;;;;5115432;28;20028;-57
2021/01/15 11:05:34;;;;;;;25.27;13.23;;;-1.80;67.30;;;;;;5093696;28;20024;-57
2021/01/15 11:08:00;;;;;;;25.88;13.32;;;-1.80;67.30;;;;;;5093014;28;20145;-57
2021/01/15 11:10:25;;;;;;;29.23;14.45;;;-1.90;67.20;;;;;;5094961;28;20043;-55
2021/01/15 11:12:57;;;;;;;30.38;16.75;;;-2.00;66.80;;;;;;5098294;28;20437;-56
2021/01/15 11:15:22;;;;;;;25.27;12.45;;;-2.10;66.40;;;;;;5098911;28;20044;-55
2021/01/15 11:17:48;;;;;;;23.58;12.35;;;-2.20;66.60;;;;;;5098690;28;20027;-57
2021/01/15 11:20:14;;;;;;;22.98;12.25;;;-2.20;66.00;;;;;;5098299;28;20493;-56
2021/01/15 11:22:41;;;;;;;25.17;11.88;;;-2.30;65.80;;;;;;5097372;28;20024;-57
2021/01/15 11:25:07;;;;;;;28.90;12.52;;;-2.40;65.80;;;;;;5085047;28;20077;-55
2021/01/15 11:27:34;;;;;;;26.27;12.55;;;-2.40;65.90;;;;;;5098309;28;20460;-56
2021/01/15 11:30:04;;;;;;;27.10;12.57;;;-2.50;65.70;;;;;;5098286;28;20520;-55
2021/01/15 11:32:29;;;;;;;22.50;10.80;;;-2.60;65.90;;;;;;5098785;28;20195;-54
2021/01/15 11:34:55;;;;;;;20.27;10.05;;;-2.70;66.10;;;;;;5096104;28;20482;-56
2021/01/15 11:37:23;;;;;;;23.58;11.35;;;-2.70;66.10;;;;;;5094403;28;20384;-57
2021/01/15 11:39:49;;;;;;;19.58;10.88;;;-2.70;66.30;;;;;;5096738;28;20081;-54
2021/01/15 11:42:15;;;;;;;22.52;11.07;;;-2.70;66.50;;;;;;5097904;28;20103;-55
2021/01/15 11:44:41;;;;;;;19.63;9.68;;;-2.60;66.60;;;;;;5097572;28;20346;-56
2021/01/15 11:47:07;;;;;;;15.38;8.68;;;-2.60;66.30;;;;;;5098394;28;20028;-56
2021/01/15 11:49:33;;;;;;;17.92;8.50;;;-2.60;65.10;;;;;;5112453;28;20032;-55
2021/01/15 11:52:00;;;;;;;15.13;8.30;;;-2.60;64.40;;;;;;5101745;28;20031;-56
2021/01/15 11:54:27;;;;;;;16.92;9.32;;;-2.70;63.60;;;;;;5094686;28;20434;-56
2021/01/15 11:56:53;;;;;;;17.63;8.30;;;-2.80;63.50;;;;;;5096404;28;20039;-56
2021/01/15 11:59:19;;;;;;;18.65;9.23;;;-2.80;63.20;;;;;;5097298;28;20032;-55
2021/01/15 12:01:45;;;;;;;18.65;9.35;;;-2.90;63.70;;;;;;5097217;28;20024;-57
2021/01/15 12:04:10;;;;;;;20.95;9.18;;;-2.90;64.20;;;;;;5096998;28;20072;-56
2021/01/15 12:06:36;;;;;;;18.63;9.20;;;-2.90;63.80;;;;;;5096910;28;20036;-56
2021/01/15 12:09:02;;;;;;;21.42;11.15;;;-2.90;62.70;;;;;;5097494;28;20040;-55
2021/01/15 12:11:30;;;;;;;23.08;11.52;;;-3.00;63.10;;;;;;5097126;28;20527;-57
2021/01/15 12:13:56;;;;;;;19.67;9.88;;;-3.00;62.90;;;;;;5097831;28;20032;-55
2021/01/15 12:16:24;;;;;;;29.15;13.75;;;-2.90;63.10;;;;;;5098005;28;20051;-56
2021/01/15 12:18:50;;;;;;;18.67;9.98;;;-3.00;63.10;;;;;;5097625;28;20027;-55
2021/01/15 12:21:19;;;;;;;19.45;10.13;;;-3.00;63.10;;;;;;5086965;28;20135;-55
2021/01/15 12:23:45;;;;;;;18.77;9.27;;;-3.10;62.80;;;;;;5090361;28;20032;-54
2021/01/15 12:26:11;;;;;;;27.88;12.38;;;-3.10;62.50;;;;;;5097347;28;20111;-55
2021/01/15 12:28:37;;;;;;;27.13;12.70;;;-3.20;62.10;;;;;;5097422;28;20081;-57
2021/01/15 12:31:03;;;;;;;47.50;17.65;;;-3.30;61.70;;;;;;5097261;28;20421;-58
2021/01/15 12:33:29;;;;;;;26.33;12.85;;;-3.30;61.40;;;;;;5096918;28;20032;-58
2021/01/15 12:35:54;;;;;;;26.67;12.38;;;-3.40;60.50;;;;;;5096486;28;20032;-56
2021/01/15 12:38:22;;;;;;;36.17;14.48;;;-3.40;60.70;;;;;;5097377;28;20026;-57
2021/01/15 12:40:50;;;;;;;22.77;10.88;;;-3.50;60.90;;;;;;5096677;28;20027;-57
2021/01/15 12:43:16;;;;;;;41.72;16.50;;;-3.50;61.20;;;;;;5097868;28;20028;-56